Time;durP1;ratioP1;P1;durP2;ratioP2;P2;SDS_P1;SDS_P2;PMS_P1;PMS_P2;Temp;Humidity;BMP_temperature;BMP_pressure;BME280_temperature;BME280_humidity;BME280_pressure;Samples;Min_cycle;Max_cycle;Signal;HPM_P1;HPM_P2
2023/07/27 00:00:30;;;;;;;3.45;2.20;;;19.40;54.00;;;;;;4974429;28;20050;-54
2023/07/27 00:02:57;;;;;;;4.18;2.05;;;19.40;54.00;;;;;;4979109;28;20056;-54
2023/07/27 00:05:24;;;;;;;3.58;1.92;;;19.40;54.00;;;;;;4975293;28;20482;-52
2023/07/27 00:07:51;;;;;;;4.10;2.45;;;19.40;54.00;;;;;;4978574;28;20058;-53
2023/07/27 00:10:20;;;;;;;4.22;2.22;;;19.40;54.00;;;;;;4978824;28;20055;-56
2023/07/27 00:12:47;;;;;;;3.33;2.20;;;19.40;54.10;;;;;;4974393;28;20055;-57
2023/07/27 00:15:16;;;;;;;3.22;1.90;;;19.30;54.10;;;;;;4979783;28;20050;-56
2023/07/27 00:17:43;;;;;;;2.75;1.90;;;19.40;54.20;;;;;;4978341;28;20062;-52
2023/07/27 00:20:11;;;;;;;3.20;2.25;;;19.40;54.20;;;;;;4977597;28;20062;-50
2023/07/27 00:22:38;;;;;;;3.72;2.22;;;19.40;54.30;;;;;;4977339;28;20054;-55
2023/07/27 00:25:06;;;;;;;2.85;2.13;;;19.40;54.30;;;;;;4976153;28;20057;-57
2023/07/27 00:27:34;;;;;;;3.78;2.20;;;19.30;54.30;;;;;;4974755;28;20054;-52
2023/07/27 00:30:01;;;;;;;2.45;1.95;;;19.30;54.30;;;;;;4978143;28;20050;-55
2023/07/27 00:32:29;;;;;;;2.88;2.20;;;19.30;54.40;;;;;;4979390;28;20117;-52
2023/07/27 00:34:57;;;;;;;6.13;2.30;;;19.30;54.40;;;;;;4978778;28;20061;-54
2023/07/27 00:37:24;;;;;;;3.38;2.00;;;19.30;54.40;;;;;;4978476;28;20054;-55
2023/07/27 00:39:51;;;;;;;2.50;1.65;;;19.30;54.50;;;;;;4978463;28;20065;-53
2023/07/27 00:42:19;;;;;;;3.00;2.13;;;19.30;54.60;;;;;;4975950;28;20054;-54
2023/07/27 00:44:46;;;;;;;4.07;2.30;;;19.30;54.60;;;;;;4980958;28;20531;-56
2023/07/27 00:47:13;;;;;;;3.70;1.77;;;19.30;54.70;;;;;;4981676;28;20069;-57
2023/07/27 00:49:42;;;;;;;4.07;2.40;;;19.20;54.60;;;;;;4981635;28;20065;-57
2023/07/27 00:52:09;;;;;;;3.58;2.10;;;19.30;54.70;;;;;;4983456;28;21352;-54
2023/07/27 00:54:37;;;;;;;2.80;1.85;;;19.20;55.20;;;;;;4978930;28;20399;-53
2023/07/27 00:57:06;;;;;;;4.32;2.03;;;19.20;54.70;;;;;;4974516;28;20054;-52
2023/07/27 00:59:34;;;;;;;3.05;2.10;;;19.20;54.70;;;;;;4976444;28;20042;-56
2023/07/27 01:02:02;;;;;;;4.35;2.00;;;19.20;54.70;;;;;;4972406;23;20417;-90
2023/07/27 01:04:38;;;;;;;3.33;2.10;;;19.20;54.70;;;;;;4964704;28;20576;-90
2023/07/27 01:07:09;;;;;;;5.18;2.15;;;19.20;54.70;;;;;;4962060;28;20050;-90
2023/07/27 01:09:37;;;;;;;4.20;2.38;;;19.20;54.70;;;;;;4963247;28;20155;-92
2023/07/27 01:12:18;;;;;;;3.28;2.10;;;19.20;54.70;;;;;;4960821;28;20482;-91
2023/07/27 01:15:19;;;;;;;3.22;2.00;;;19.20;54.60;;;;;;4958474;28;20054;-90
2023/07/27 01:18:01;;;;;;;3.75;1.80;;;19.20;54.50;;;;;;4959592;28;20054;-90
2023/07/27 01:20:46;;;;;;;2.75;1.67;;;19.20;54.40;;;;;;4961208;28;20130;-90
2023/07/27 01:23:53;;;;;;;4.28;2.42;;;19.20;54.20;;;;;;4996330;23;20050;-58
2023/07/27 01:26:56;;;;;;;2.92;1.95;;;19.20;54.00;;;;;;4991765;28;20057;-59
2023/07/27 01:29:52;;;;;;;4.28;2.20;;;19.20;53.80;;;;;;4998573;28;20596;-59
2023/07/27 01:32:23;;;;;;;3.53;2.00;;;19.20;53.80;;;;;;4982472;28;20046;-57
2023/07/27 01:34:57;;;;;;;6.15;2.00;;;19.20;53.80;;;;;;5002327;28;20058;-58
2023/07/27 01:37:28;;;;;;;3.15;2.03;;;19.10;53.70;;;;;;5000966;28;20069;-58
2023/07/27 01:39:57;;;;;;;3.92;1.98;;;19.10;53.80;;;;;;5001753;28;20061;-57
2023/07/27 01:42:25;;;;;;;6.38;2.33;;;19.10;53.80;;;;;;4999649;28;20056;-58
2023/07/27 01:44:53;;;;;;;3.10;2.10;;;19.10;53.90;;;;;;5001671;28;20057;-58
2023/07/27 01:47:23;;;;;;;3.85;2.20;;;19.10;53.90;;;;;;5002067;28;20046;-59
2023/07/27 01:49:52;;;;;;;4.25;2.00;;;19.10;54.00;;;;;;5001071;28;20076;-58
2023/07/27 01:52:21;;;;;;;3.67;2.38;;;19.10;54.00;;;;;;5001508;28;20425;-58
2023/07/27 01:54:49;;;;;;;6.70;2.25;;;19.10;54.00;;;;;;5001619;28;20058;-58
2023/07/27 01:57:18;;;;;;;6.90;2.80;;;19.10;54.00;;;;;;4999521;28;20053;-59
2023/07/27 01:59:46;;;;;;;4.03;2.40;;;19.00;53.90;;;;;;5000406;28;20405;-59
2023/07/27 02:02:15;;;;;;;3.50;2.22;;;19.10;53.90;;;;;;4989307;28;20073;-57
2023/07/27 02:04:44;;;;;;;3.55;2.10;;;19.10;53.90;;;;;;4975627;28;20055;-58
2023/07/27 02:07:11;;;;;;;3.83;2.50;;;19.00;53.80;;;;;;4974745;28;20058;-57
2023/07/27 02:09:38;;;;;;;6.72;2.15;;;19.10;53.80;;;;;;4976338;28;20054;-58
2023/07/27 02:12:12;;;;;;;3.47;2.00;;;19.10;53.80;;;;;;4973683;28;20050;-48
2023/07/27 02:14:47;;;;;;;6.90;1.90;;;19.00;53.70;;;;;;4973241;28;20057;-52
2023/07/27 02:17:19;;;;;;;4.03;2.35;;;19.00;53.70;;;;;;4974109;28;20057;-49
2023/07/27 02:19:56;;;;;;;7.00;2.08;;;19.10;53.70;;;;;;4976523;28;20478;-55
2023/07/27 02:22:25;;;;;;;2.85;2.05;;;19.10;53.60;;;;;;4974587;28;20054;-49
2023/07/27 02:24:52;;;;;;;2.80;2.13;;;19.10;53.50;;;;;;4970883;28;20506;-56
2023/07/27 02:27:20;;;;;;;4.32;2.38;;;19.10;53.50;;;;;;4975089;28;20520;-54
2023/07/27 02:29:47;;;;;;;4.95;2.13;;;19.10;53.50;;;;;;4976346;28;20046;-49
2023/07/27 02:32:14;;;;;;;3.45;1.98;;;19.10;53.50;;;;;;4971272;28;20093;-53
2023/07/27 02:34:41;;;;;;;2.95;1.98;;;19.10;53.60;;;;;;4975015;28;20050;-52
2023/07/27 02:37:10;;;;;;;4.20;2.28;;;19.10;53.70;;;;;;4975092;28;20054;-50
2023/07/27 02:39:37;;;;;;;3.50;2.30;;;19.10;53.60;;;;;;4977591;28;20069;-50
2023/07/27 02:42:05;;;;;;;3.13;2.00;;;19.10;53.60;;;;;;4972518;28;20058;-54
2023/07/27 02:44:32;;;;;;;4.10;2.25;;;19.10;53.60;;;;;;4975085;28;20054;-52
2023/07/27 02:47:00;;;;;;;2.50;1.90;;;19.10;53.70;;;;;;4976064;28;20494;-51
2023/07/27 02:49:27;;;;;;;3.65;2.10;;;19.10;53.50;;;;;;4975518;28;20063;-51
2023/07/27 02:51:54;;;;;;;4.07;1.90;;;19.10;53.50;;;;;;4975145;28;20050;-51
2023/07/27 02:54:23;;;;;;;3.47;2.10;;;19.10;53.60;;;;;;4974491;28;20054;-54
2023/07/27 02:56:50;;;;;;;3.00;1.90;;;19.20;53.60;;;;;;4974843;28;20050;-51
2023/07/27 02:59:17;;;;;;;3.67;2.05;;;19.20;53.70;;;;;;4973374;28;20058;-52
2023/07/27 03:01:45;;;;;;;4.78;1.67;;;19.20;53.70;;;;;;4973962;28;20058;-52
2023/07/27 03:04:12;;;;;;;2.97;1.65;;;19.20;53.70;;;;;;4972952;28;20058;-51
2023/07/27 03:06:39;;;;;;;3.78;1.73;;;19.20;53.70;;;;;;4972194;28;20062;-52
2023/07/27 03:09:06;;;;;;;3.17;2.05;;;19.20;53.70;;;;;;4978361;28;20065;-49
2023/07/27 03:11:37;;;;;;;2.75;2.00;;;19.20;53.60;;;;;;4978292;28;20062;-53
2023/07/27 03:14:05;;;;;;;3.25;1.92;;;19.20;53.50;;;;;;4976082;28;20490;-56
2023/07/27 03:16:32;;;;;;;3.95;2.10;;;19.20;53.60;;;;;;4979555;28;20494;-49
2023/07/27 03:18:59;;;;;;;4.03;2.05;;;19.20;53.70;;;;;;4981463;28;20510;-52
2023/07/27 03:21:26;;;;;;;3.60;1.92;;;19.20;53.80;;;;;;4980254;28;20042;-58
2023/07/27 03:23:54;;;;;;;5.07;2.00;;;19.20;53.90;;;;;;4973881;28;20057;-59
2023/07/27 03:26:21;;;;;;;2.90;1.92;;;19.20;54.00;;;;;;4977049;28;20057;-58
2023/07/27 03:28:50;;;;;;;2.58;2.03;;;19.20;54.10;;;;;;4978684;28;20066;-58
2023/07/27 03:31:19;;;;;;;3.70;2.13;;;19.20;54.30;;;;;;4976550;28;20049;-58
2023/07/27 03:33:46;;;;;;;5.57;2.25;;;19.20;54.40;;;;;;4980106;28;20057;-58
2023/07/27 03:36:14;;;;;;;3.20;1.98;;;19.20;54.60;;;;;;4980852;28;20069;-58
2023/07/27 03:38:42;;;;;;;3.42;2.50;;;19.20;54.70;;;;;;4977352;28;20054;-58
2023/07/27 03:41:09;;;;;;;3.45;2.20;;;19.20;54.80;;;;;;4973858;28;20050;-57
2023/07/27 03:43:36;;;;;;;4.43;2.20;;;19.20;54.80;;;;;;4979039;28;20054;-58
2023/07/27 03:46:05;;;;;;;5.28;2.28;;;19.20;54.90;;;;;;4979689;28;20057;-59
2023/07/27 03:48:32;;;;;;;2.47;1.75;;;19.20;55.00;;;;;;4979033;28;20061;-57
2023/07/27 03:51:00;;;;;;;4.13;2.13;;;19.20;55.10;;;;;;4975901;28;20050;-57
2023/07/27 03:53:27;;;;;;;3.33;1.88;;;19.20;55.20;;;;;;4973563;28;20458;-57
2023/07/27 03:55:55;;;;;;;4.05;2.03;;;19.20;55.30;;;;;;4974882;28;20497;-57
2023/07/27 03:58:22;;;;;;;6.38;3.35;;;19.20;55.40;;;;;;4977228;28;20061;-58
2023/07/27 04:00:49;;;;;;;20.70;11.15;;;19.20;55.50;;;;;;4979216;28;20062;-57
2023/07/27 04:03:18;;;;;;;8.55;4.13;;;19.20;55.50;;;;;;4976079;28;20054;-57
2023/07/27 04:05:45;;;;;;;6.40;3.00;;;19.20;55.60;;;;;;4977711;28;20625;-58
2023/07/27 04:08:13;;;;;;;3.00;2.30;;;19.20;55.70;;;;;;4979022;28;20050;-58
2023/07/27 04:10:40;;;;;;;3.25;2.13;;;19.10;55.70;;;;;;4978197;28;20407;-58
2023/07/27 04:13:07;;;;;;;6.65;2.40;;;19.10;55.80;;;;;;4977121;28;20062;-58
2023/07/27 04:15:35;;;;;;;3.95;2.25;;;19.10;55.90;;;;;;4975805;28;20077;-55
2023/07/27 04:18:02;;;;;;;3.40;2.35;;;19.10;55.90;;;;;;4974469;28;20053;-56
2023/07/27 04:20:30;;;;;;;7.15;2.33;;;19.10;56.00;;;;;;4976899;28;20054;-56
2023/07/27 04:22:58;;;;;;;2.60;1.92;;;19.10;56.10;;;;;;4977711;28;20061;-57
2023/07/27 04:25:25;;;;;;;5.47;2.40;;;19.10;56.10;;;;;;4975985;28;20069;-57
2023/07/27 04:27:52;;;;;;;5.18;2.22;;;19.00;56.10;;;;;;4974886;28;20058;-56
2023/07/27 04:30:20;;;;;;;53.75;23.40;;;19.10;56.20;;;;;;4977695;28;20058;-57
2023/07/27 04:32:47;;;;;;;54.50;28.48;;;19.00;56.20;;;;;;4975219;28;20050;-57
2023/07/27 04:35:15;;;;;;;14.82;8.60;;;19.10;56.30;;;;;;4974896;28;20054;-55
2023/07/27 04:37:43;;;;;;;7.15;4.20;;;19.00;56.30;;;;;;4979563;28;20445;-57
2023/07/27 04:40:13;;;;;;;4.28;2.75;;;19.00;56.40;;;;;;4978659;28;21429;-56
2023/07/27 04:42:40;;;;;;;6.80;2.92;;;19.00;56.40;;;;;;4981566;28;20390;-57
2023/07/27 04:45:09;;;;;;;3.33;2.35;;;19.00;56.50;;;;;;4980277;28;20526;-56
2023/07/27 04:47:36;;;;;;;3.60;2.15;;;19.00;56.50;;;;;;4982915;28;20524;-57
2023/07/27 04:50:04;;;;;;;3.80;2.10;;;19.00;56.60;;;;;;4975939;28;20518;-56
2023/07/27 04:52:32;;;;;;;5.55;2.47;;;18.90;56.50;;;;;;4978084;28;20053;-57
2023/07/27 04:55:00;;;;;;;3.42;2.17;;;18.90;56.70;;;;;;4974655;28;20081;-56
2023/07/27 04:57:28;;;;;;;4.63;2.25;;;18.90;56.80;;;;;;4971672;28;20061;-57
2023/07/27 04:59:55;;;;;;;3.53;2.10;;;18.90;56.80;;;;;;4978095;28;20054;-58
2023/07/27 05:02:22;;;;;;;5.80;2.95;;;18.90;56.80;;;;;;4975860;28;20138;-57
2023/07/27 05:04:51;;;;;;;5.53;2.65;;;18.90;56.90;;;;;;4974696;28;20054;-56
2023/07/27 05:07:19;;;;;;;3.42;2.20;;;18.90;57.00;;;;;;4975384;28;20054;-56
2023/07/27 05:09:46;;;;;;;3.83;2.20;;;18.90;57.00;;;;;;4977422;28;20085;-57
2023/07/27 05:12:15;;;;;;;2.92;2.05;;;18.80;57.00;;;;;;4972781;28;20062;-57
2023/07/27 05:14:42;;;;;;;3.95;1.98;;;18.80;57.10;;;;;;4973942;28;20562;-57
2023/07/27 05:17:09;;;;;;;3.55;2.10;;;18.90;57.20;;;;;;4973676;28;20417;-56
2023/07/27 05:19:37;;;;;;;5.47;2.22;;;18.80;57.10;;;;;;4972706;28;20081;-55
2023/07/27 05:22:04;;;;;;;9.68;4.93;;;18.80;57.20;;;;;;4975274;28;20057;-58
2023/07/27 05:24:32;;;;;;;58.78;31.08;;;18.80;57.30;;;;;;4974546;28;20050;-56
2023/07/27 05:26:59;;;;;;;30.80;14.05;;;18.80;57.30;;;;;;4974933;28;20057;-58
2023/07/27 05:29:27;;;;;;;8.73;5.45;;;18.80;57.30;;;;;;4976500;28;20066;-58
2023/07/27 05:31:55;;;;;;;5.57;3.13;;;18.80;57.40;;;;;;4973951;28;20410;-57
2023/07/27 05:34:22;;;;;;;4.93;2.50;;;18.80;57.50;;;;;;4977480;28;20057;-56
2023/07/27 05:36:49;;;;;;;4.32;2.30;;;18.80;57.50;;;;;;4976708;28;20050;-58
2023/07/27 05:39:16;;;;;;;4.72;2.17;;;18.70;57.50;;;;;;4976199;28;20050;-56
2023/07/27 05:41:44;;;;;;;5.07;2.30;;;18.70;57.50;;;;;;4976727;28;20050;-57
2023/07/27 05:44:11;;;;;;;4.13;2.22;;;18.70;57.60;;;;;;4975656;28;20061;-58
2023/07/27 05:46:42;;;;;;;3.67;2.60;;;18.70;57.60;;;;;;4970160;28;20478;-58
2023/07/27 05:49:09;;;;;;;6.30;2.90;;;18.70;57.70;;;;;;4973718;28;20058;-58
2023/07/27 05:51:37;;;;;;;5.10;2.70;;;18.70;57.70;;;;;;4977038;28;20081;-58
2023/07/27 05:54:04;;;;;;;4.35;2.50;;;18.70;57.80;;;;;;4974428;28;20057;-56
2023/07/27 05:56:31;;;;;;;4.57;2.67;;;18.70;57.90;;;;;;4973189;28;20081;-58
2023/07/27 05:59:04;;;;;;;4.68;2.40;;;18.70;57.90;;;;;;4975573;28;20062;-58
2023/07/27 06:01:32;;;;;;;6.20;3.03;;;18.70;58.00;;;;;;4968857;28;20851;-58
2023/07/27 06:04:02;;;;;;;4.63;2.78;;;18.60;58.00;;;;;;4975676;28;20160;-57
2023/07/27 06:06:31;;;;;;;6.47;2.50;;;18.60;58.10;;;;;;4972605;28;20050;-58
2023/07/27 06:08:59;;;;;;;4.35;2.20;;;18.70;58.10;;;;;;4973551;28;20057;-58
2023/07/27 06:11:27;;;;;;;3.42;2.17;;;18.60;58.20;;;;;;4976637;28;20058;-58
2023/07/27 06:13:55;;;;;;;4.00;2.40;;;18.60;58.30;;;;;;4975631;28;20069;-57
2023/07/27 06:16:24;;;;;;;5.70;2.58;;;18.60;58.30;;;;;;4976438;28;20058;-60
2023/07/27 06:18:51;;;;;;;5.25;2.40;;;18.60;58.30;;;;;;4977253;28;20061;-57
2023/07/27 06:21:20;;;;;;;5.47;2.45;;;18.60;58.40;;;;;;4979715;28;20054;-58
2023/07/27 06:23:51;;;;;;;4.95;2.38;;;18.60;58.50;;;;;;4976976;28;20061;-58
2023/07/27 06:26:19;;;;;;;2.92;1.85;;;18.60;58.60;;;;;;4969809;28;20058;-57
2023/07/27 06:28:48;;;;;;;3.92;2.30;;;18.60;58.70;;;;;;4972532;28;20069;-58
2023/07/27 06:31:15;;;;;;;4.20;2.08;;;18.60;58.70;;;;;;4974206;28;20058;-58
2023/07/27 06:33:42;;;;;;;6.85;2.80;;;18.60;58.80;;;;;;4973569;28;20073;-58
2023/07/27 06:36:11;;;;;;;23.45;12.20;;;18.60;58.90;;;;;;4972526;28;20050;-58
2023/07/27 06:38:40;;;;;;;9.48;6.47;;;18.60;58.90;;;;;;4972761;28;20050;-58
2023/07/27 06:41:07;;;;;;;5.15;3.13;;;18.60;59.00;;;;;;4976703;28;20058;-59
2023/07/27 06:43:34;;;;;;;4.55;2.65;;;18.60;59.10;;;;;;4974243;28;20057;-57
2023/07/27 06:46:02;;;;;;;5.10;2.30;;;18.60;59.20;;;;;;4972749;28;20053;-59
2023/07/27 06:48:29;;;;;;;5.18;2.20;;;18.60;59.30;;;;;;4974198;28;20117;-58
2023/07/27 06:50:57;;;;;;;2.70;1.95;;;18.60;59.30;;;;;;4972223;28;20047;-58
2023/07/27 06:53:24;;;;;;;3.03;1.95;;;18.60;59.40;;;;;;4973677;28;20062;-57
2023/07/27 06:55:52;;;;;;;4.32;2.15;;;18.60;59.40;;;;;;4971942;28;20062;-55
2023/07/27 06:58:20;;;;;;;4.10;2.35;;;18.60;59.70;;;;;;4973675;28;20069;-58
2023/07/27 07:00:47;;;;;;;3.63;2.33;;;18.60;59.80;;;;;;4975530;28;20502;-58
2023/07/27 07:03:14;;;;;;;3.97;2.20;;;18.60;59.80;;;;;;4973840;28;20070;-58
2023/07/27 07:05:41;;;;;;;4.20;1.98;;;18.60;60.00;;;;;;4971580;28;20055;-57
2023/07/27 07:08:09;;;;;;;7.18;2.10;;;18.60;60.10;;;;;;4974425;28;20065;-57
2023/07/27 07:10:36;;;;;;;10.15;2.67;;;18.60;60.30;;;;;;4975181;28;20062;-60
2023/07/27 07:13:04;;;;;;;2.78;1.98;;;18.60;60.60;;;;;;4974800;28;20509;-57
2023/07/27 07:15:32;;;;;;;2.75;1.90;;;18.60;60.70;;;;;;4971114;28;20053;-57
2023/07/27 07:17:59;;;;;;;5.45;2.78;;;18.60;60.70;;;;;;4974718;28;20065;-59
2023/07/27 07:20:26;;;;;;;3.55;2.10;;;18.60;61.00;;;;;;4978276;28;20419;-57
2023/07/27 07:22:53;;;;;;;5.40;2.55;;;18.60;61.10;;;;;;4976202;28;20462;-57
2023/07/27 07:25:21;;;;;;;6.28;2.40;;;18.60;61.20;;;;;;4979554;28;20066;-58
2023/07/27 07:27:48;;;;;;;6.10;2.40;;;18.60;61.40;;;;;;4975597;28;20058;-56
2023/07/27 07:30:17;;;;;;;3.10;2.35;;;18.60;61.40;;;;;;4971148;28;20518;-57
2023/07/27 07:32:44;;;;;;;4.25;2.20;;;18.70;61.70;;;;;;4969836;28;20061;-56
2023/07/27 07:35:12;;;;;;;4.30;2.47;;;18.70;61.60;;;;;;4978964;28;20057;-57
2023/07/27 07:37:39;;;;;;;3.22;2.42;;;18.70;61.70;;;;;;4976772;28;20050;-55
2023/07/27 07:40:07;;;;;;;3.60;1.90;;;18.70;61.80;;;;;;4979301;28;20624;-58
2023/07/27 07:42:35;;;;;;;3.45;2.05;;;18.80;62.10;;;;;;4975701;28;20525;-56
2023/07/27 07:45:02;;;;;;;3.60;2.28;;;18.80;62.10;;;;;;4977118;28;20053;-60
2023/07/27 07:47:30;;;;;;;4.03;2.45;;;18.80;62.20;;;;;;4972101;28;20057;-55
2023/07/27 07:49:59;;;;;;;2.97;1.85;;;18.80;62.20;;;;;;4977637;28;20066;-58
2023/07/27 07:52:26;;;;;;;4.57;2.30;;;18.90;62.10;;;;;;4979296;28;20058;-56
2023/07/27 07:54:53;;;;;;;3.75;2.05;;;18.90;62.10;;;;;;4980745;28;20406;-58
2023/07/27 07:57:21;;;;;;;5.15;2.33;;;18.90;62.20;;;;;;4980560;28;20050;-58
2023/07/27 07:59:48;;;;;;;3.15;1.85;;;18.90;62.20;;;;;;4979991;28;20054;-58
2023/07/27 08:02:15;;;;;;;4.00;1.80;;;19.00;62.30;;;;;;4981513;28;20054;-50
2023/07/27 08:04:44;;;;;;;2.30;1.70;;;19.00;62.30;;;;;;4980145;28;20058;-48
2023/07/27 08:07:11;;;;;;;2.47;1.80;;;19.00;62.30;;;;;;4982711;28;20138;-49
2023/07/27 08:09:38;;;;;;;2.65;1.83;;;19.10;62.40;;;;;;4982186;28;20074;-46
2023/07/27 08:12:06;;;;;;;2.90;1.83;;;19.10;62.40;;;;;;4982146;28;20058;-47
2023/07/27 08:14:33;;;;;;;5.38;1.80;;;19.10;62.40;;;;;;4983190;28;20388;-54
2023/07/27 08:17:01;;;;;;;2.10;1.50;;;19.10;62.30;;;;;;4982838;28;20049;-55
2023/07/27 08:19:28;;;;;;;1.95;1.50;;;19.10;62.30;;;;;;4977963;28;20059;-54
2023/07/27 08:21:56;;;;;;;1.88;1.60;;;19.10;62.30;;;;;;4978096;28;20080;-50
2023/07/27 08:24:24;;;;;;;2.53;1.50;;;19.20;62.40;;;;;;4977942;28;20050;-50
2023/07/27 08:26:52;;;;;;;2.33;1.55;;;19.20;62.40;;;;;;4978503;28;20046;-51
2023/07/27 08:29:19;;;;;;;2.45;1.65;;;19.20;62.50;;;;;;4981486;28;20057;-49
2023/07/27 08:31:46;;;;;;;3.25;1.33;;;19.20;62.50;;;;;;4984136;28;20450;-53
2023/07/27 08:34:13;;;;;;;1.92;1.60;;;19.20;62.50;;;;;;4983081;28;20062;-49
2023/07/27 08:36:41;;;;;;;4.13;1.48;;;19.20;62.60;;;;;;4982070;28;20054;-50
2023/07/27 08:39:10;;;;;;;2.10;1.65;;;19.20;62.60;;;;;;4978788;28;20605;-50
2023/07/27 08:41:37;;;;;;;2.05;1.40;;;19.20;62.60;;;;;;4981011;28;20064;-50
2023/07/27 08:44:06;;;;;;;3.15;1.45;;;19.20;62.60;;;;;;4981869;28;20065;-48
2023/07/27 08:46:35;;;;;;;2.20;1.20;;;19.30;62.60;;;;;;4983634;28;20046;-49
2023/07/27 08:49:04;;;;;;;2.13;1.15;;;19.30;62.60;;;;;;4980609;28;20146;-49
2023/07/27 08:51:34;;;;;;;1.90;1.15;;;19.30;62.60;;;;;;4981228;28;20093;-49
2023/07/27 08:54:02;;;;;;;1.88;1.20;;;19.30;62.60;;;;;;4981997;28;20050;-51
2023/07/27 08:56:30;;;;;;;2.35;1.40;;;19.30;62.60;;;;;;4979685;28;20429;-46
2023/07/27 08:58:58;;;;;;;2.05;1.17;;;19.30;62.80;;;;;;4981194;28;20054;-49
2023/07/27 09:01:26;;;;;;;2.00;1.10;;;19.30;62.80;;;;;;4982941;28;20057;-47
2023/07/27 09:03:53;;;;;;;1.67;1.20;;;19.40;62.90;;;;;;4980288;28;20058;-47
2023/07/27 09:06:39;;;;;;;1.33;1.23;;;19.40;63.00;;;;;;4973772;28;20054;-46
2023/07/27 09:09:16;;;;;;;2.60;1.58;;;19.40;63.30;;;;;;4977244;28;20441;-54
2023/07/27 09:11:46;;;;;;;2.95;1.10;;;19.50;63.30;;;;;;4975017;28;20467;-47
2023/07/27 09:14:14;;;;;;;1.40;1.30;;;19.50;63.30;;;;;;4974679;28;20434;-49
2023/07/27 09:16:41;;;;;;;1.60;1.30;;;19.50;63.30;;;;;;4979315;28;20050;-48
2023/07/27 09:19:09;;;;;;;2.97;1.48;;;19.50;63.30;;;;;;4977832;28;20061;-47
2023/07/27 09:21:41;;;;;;;2.42;1.27;;;19.50;63.40;;;;;;4979651;28;20054;-49
2023/07/27 09:24:12;;;;;;;1.60;1.48;;;19.50;63.60;;;;;;4973516;28;20050;-50
2023/07/27 09:26:49;;;;;;;1.92;1.35;;;19.60;63.80;;;;;;4977555;28;20054;-52
2023/07/27 09:29:18;;;;;;;1.40;1.30;;;19.60;63.90;;;;;;4976236;28;20065;-52
2023/07/27 09:31:46;;;;;;;1.90;1.33;;;19.60;63.80;;;;;;4975466;28;20077;-51
2023/07/27 09:34:14;;;;;;;1.52;1.17;;;19.70;63.90;;;;;;4975974;28;20050;-50
2023/07/27 09:36:41;;;;;;;2.13;1.40;;;19.70;63.90;;;;;;4971900;28;20050;-50
2023/07/27 09:39:09;;;;;;;2.78;1.58;;;19.70;64.00;;;;;;4975096;28;20054;-50
2023/07/27 09:41:37;;;;;;;3.72;1.83;;;19.70;63.90;;;;;;4975177;28;20053;-51
2023/07/27 09:44:07;;;;;;;2.20;1.40;;;19.80;64.00;;;;;;4974644;28;20410;-50
2023/07/27 09:46:34;;;;;;;2.88;1.48;;;19.80;64.00;;;;;;4975032;28;20058;-51
2023/07/27 09:49:02;;;;;;;2.45;1.60;;;19.80;63.90;;;;;;4977566;28;20054;-51
2023/07/27 09:51:30;;;;;;;1.90;1.50;;;19.80;64.00;;;;;;4977124;28;20061;-48
2023/07/27 09:54:00;;;;;;;1.70;1.50;;;19.90;64.20;;;;;;4975652;28;20054;-52
2023/07/27 09:56:28;;;;;;;4.32;1.65;;;19.90;64.20;;;;;;4973082;28;20054;-50
2023/07/27 09:58:55;;;;;;;1.60;1.20;;;19.90;64.20;;;;;;4973818;28;20387;-49
2023/07/27 10:01:24;;;;;;;1.70;1.60;;;20.00;64.20;;;;;;4975839;28;20529;-50
2023/07/27 10:03:57;;;;;;;2.50;2.08;;;20.00;64.30;;;;;;4975146;28;20054;-52
2023/07/27 10:06:25;;;;;;;1.88;1.67;;;20.10;64.30;;;;;;4977229;28;20414;-53
2023/07/27 10:08:54;;;;;;;1.38;1.25;;;20.00;64.10;;;;;;4975989;28;20051;-48
2023/07/27 10:11:30;;;;;;;2.83;1.67;;;20.10;64.10;;;;;;4975746;28;20160;-48
2023/07/27 10:13:57;;;;;;;2.28;1.55;;;20.10;64.10;;;;;;4977168;28;20054;-53
2023/07/27 10:16:29;;;;;;;3.17;1.40;;;20.10;63.90;;;;;;4974385;28;20057;-51
2023/07/27 10:18:56;;;;;;;2.08;1.70;;;20.20;64.10;;;;;;4973419;28;20057;-50
2023/07/27 10:21:29;;;;;;;1.35;1.17;;;20.20;64.00;;;;;;4976730;28;20058;-46
2023/07/27 10:23:58;;;;;;;3.13;1.55;;;20.20;64.00;;;;;;4974578;28;20077;-49
2023/07/27 10:26:50;;;;;;;2.38;1.30;;;20.30;64.00;;;;;;4976945;28;20058;-47
2023/07/27 10:29:19;;;;;;;1.30;1.20;;;20.30;64.20;;;;;;4977908;28;20054;-53
2023/07/27 10:32:01;;;;;;;3.63;1.42;;;20.30;63.90;;;;;;4979531;28;20395;-48
2023/07/27 10:34:29;;;;;;;2.60;1.48;;;20.40;64.10;;;;;;4974949;28;20058;-47
2023/07/27 10:36:59;;;;;;;4.07;1.40;;;20.30;63.80;;;;;;4975276;28;20078;-49
2023/07/27 10:39:29;;;;;;;1.88;1.40;;;20.40;63.90;;;;;;4977333;28;20057;-49
2023/07/27 10:42:05;;;;;;;1.80;1.40;;;20.40;64.10;;;;;;4976589;28;20482;-49
2023/07/27 10:44:41;;;;;;;3.80;1.58;;;20.40;64.30;;;;;;4980589;28;20050;-55
2023/07/27 10:47:11;;;;;;;7.63;1.80;;;20.40;64.50;;;;;;4980801;28;20097;-52
2023/07/27 10:49:40;;;;;;;2.75;1.73;;;20.50;64.60;;;;;;4980428;28;20478;-50
2023/07/27 10:52:08;;;;;;;4.28;1.40;;;20.50;64.60;;;;;;4979497;28;20407;-47
2023/07/27 10:54:38;;;;;;;3.13;1.65;;;20.50;64.70;;;;;;4978886;28;20062;-51
2023/07/27 10:57:07;;;;;;;2.35;1.60;;;20.50;64.90;;;;;;4974601;28;20057;-47
2023/07/27 10:59:37;;;;;;;3.22;1.55;;;20.60;65.10;;;;;;4973977;28;20054;-51
2023/07/27 11:02:10;;;;;;;3.00;1.30;;;20.70;65.30;;;;;;4974803;28;20050;-50
2023/07/27 11:04:39;;;;;;;2.17;1.42;;;20.70;65.30;;;;;;4974286;28;20069;-53
2023/07/27 11:07:07;;;;;;;1.30;1.20;;;20.80;65.30;;;;;;4976375;28;20050;-48
2023/07/27 11:09:34;;;;;;;1.52;1.38;;;20.80;65.20;;;;;;4975562;28;20054;-54
2023/07/27 11:12:01;;;;;;;2.50;1.30;;;20.80;65.20;;;;;;4970159;28;20753;-50
2023/07/27 11:14:29;;;;;;;3.22;1.05;;;20.90;65.20;;;;;;4971637;28;20046;-50
2023/07/27 11:16:56;;;;;;;1.83;1.63;;;20.90;65.20;;;;;;4970540;28;20066;-47
2023/07/27 11:19:26;;;;;;;1.92;1.30;;;20.90;65.10;;;;;;4972454;28;20055;-47
2023/07/27 11:21:56;;;;;;;1.27;0.98;;;21.00;65.10;;;;;;4975631;28;20485;-47
2023/07/27 11:24:23;;;;;;;6.38;1.50;;;21.00;65.10;;;;;;4975588;28;20418;-51
2023/07/27 11:26:50;;;;;;;1.48;1.10;;;21.00;65.00;;;;;;4974967;28;20062;-48
2023/07/27 11:29:18;;;;;;;2.75;1.33;;;21.10;65.00;;;;;;4981983;28;20054;-51
2023/07/27 11:31:55;;;;;;;3.08;1.00;;;21.10;64.80;;;;;;4976283;28;20058;-56
2023/07/27 11:34:24;;;;;;;1.33;1.05;;;21.10;64.90;;;;;;4982878;28;20066;-56
2023/07/27 11:36:56;;;;;;;1.55;0.90;;;21.10;64.90;;;;;;4981742;28;20425;-54
2023/07/27 11:39:24;;;;;;;1.42;1.20;;;21.10;64.90;;;;;;4981199;28;20154;-57
2023/07/27 11:41:53;;;;;;;1.65;0.90;;;21.10;64.90;;;;;;4981844;28;20061;-55
2023/07/27 11:44:22;;;;;;;3.85;0.95;;;21.10;65.00;;;;;;4984423;28;20058;-56
2023/07/27 11:46:52;;;;;;;2.55;1.05;;;21.20;65.30;;;;;;4978924;28;20046;-56
2023/07/27 11:49:22;;;;;;;1.02;0.90;;;21.20;65.60;;;;;;4983184;28;20063;-55
2023/07/27 11:51:50;;;;;;;2.47;1.05;;;21.20;65.90;;;;;;4983327;28;20054;-56
2023/07/27 11:54:28;;;;;;;1.00;1.00;;;21.30;66.00;;;;;;4981715;28;20062;-55
2023/07/27 11:56:57;;;;;;;3.65;0.80;;;21.40;66.20;;;;;;4980665;28;20061;-54
2023/07/27 11:59:25;;;;;;;1.42;0.90;;;21.40;65.80;;;;;;4984731;28;20061;-55
2023/07/27 12:01:53;;;;;;;1.30;0.93;;;21.50;65.80;;;;;;4982624;28;20069;-55
2023/07/27 12:04:20;;;;;;;1.08;0.80;;;21.50;65.80;;;;;;4981985;28;20130;-55
2023/07/27 12:06:49;;;;;;;1.80;0.80;;;21.50;65.70;;;;;;4982840;28;20069;-55
2023/07/27 12:09:16;;;;;;;1.42;1.05;;;21.60;65.60;;;;;;4983133;28;20498;-55
2023/07/27 12:11:46;;;;;;;0.93;0.70;;;21.60;65.60;;;;;;4979725;28;20054;-55
2023/07/27 12:14:13;;;;;;;2.20;0.80;;;21.60;65.50;;;;;;4983704;28;20062;-54
2023/07/27 12:16:42;;;;;;;0.75;0.70;;;21.70;65.40;;;;;;4981964;28;20434;-56
2023/07/27 12:19:09;;;;;;;1.02;0.70;;;21.70;65.30;;;;;;4982227;28;20059;-55
2023/07/27 12:21:38;;;;;;;1.58;0.70;;;21.70;65.20;;;;;;4982968;28;20062;-56
2023/07/27 12:24:09;;;;;;;1.02;0.70;;;21.70;65.10;;;;;;4982182;28;20383;-56
2023/07/27 12:26:37;;;;;;;1.58;0.70;;;21.70;65.00;;;;;;4980093;28;20060;-55
2023/07/27 12:29:05;;;;;;;1.10;0.80;;;21.80;65.00;;;;;;4983761;28;20403;-55
2023/07/27 12:31:33;;;;;;;2.78;0.80;;;21.80;64.90;;;;;;4980135;28;20161;-52
2023/07/27 12:34:00;;;;;;;1.73;0.80;;;21.80;64.90;;;;;;4982770;28;20061;-56
2023/07/27 12:36:27;;;;;;;0.63;0.60;;;21.80;64.90;;;;;;4981244;28;20536;-55
2023/07/27 12:38:55;;;;;;;0.60;0.60;;;21.80;64.80;;;;;;4981653;28;20065;-56
2023/07/27 12:41:22;;;;;;;1.13;0.77;;;21.80;64.80;;;;;;4979193;28;20081;-50
2023/07/27 12:43:49;;;;;;;0.70;0.70;;;21.80;64.60;;;;;;4982421;28;20050;-48
2023/07/27 12:46:18;;;;;;;0.90;0.55;;;21.80;64.50;;;;;;4980720;28;20450;-50
2023/07/27 12:48:45;;;;;;;1.77;0.85;;;21.80;64.50;;;;;;4981613;28;20501;-51
2023/07/27 12:51:12;;;;;;;1.33;0.60;;;21.80;64.40;;;;;;4980220;28;20062;-49
2023/07/27 12:53:39;;;;;;;0.80;0.70;;;21.80;64.40;;;;;;4981249;28;20498;-48